sensor_id;sensor_type;location;lat;lon;timestamp;temperature;humidity
21331;DHT22;10824;51.632;4.950;2023-10-19T00:00:56;12.70;1.00
21331;DHT22;10824;51.632;4.950;2023-10-19T00:03:24;12.80;1.00
21331;DHT22;10824;51.632;4.950;2023-10-19T00:05:51;12.80;1.00
21331;DHT22;10824;51.632;4.950;2023-10-19T00:08:18;12.80;5.40
21331;DHT22;10824;51.632;4.950;2023-10-19T00:10:54;12.80;31.40
21331;DHT22;10824;51.632;4.950;2023-10-19T00:13:39;12.90;99.90
21331;DHT22;10824;51.632;4.950;2023-10-19T00:16:08;13.10;99.90
21331;DHT22;10824;51.632;4.950;2023-10-19T00:18:56;13.10;99.90
21331;DHT22;10824;51.632;4.950;2023-10-19T00:21:27;13.00;99.90
21331;DHT22;10824;51.632;4.950;2023-10-19T00:23:57;13.10;99.90
21331;DHT22;10824;51.632;4.950;2023-10-19T00:26:26;13.10;99.90
21331;DHT22;10824;51.632;4.950;2023-10-19T00:29:00;13.10;99.90
21331;DHT22;10824;51.632;4.950;2023-10-19T00:31:41;13.20;99.90
21331;DHT22;10824;51.632;4.950;2023-10-19T00:34:08;13.20;99.90
21331;DHT22;10824;51.632;4.950;2023-10-19T00:36:35;13.30;99.90
21331;DHT22;10824;51.632;4.950;2023-10-19T00:39:06;13.30;1.00
21331;DHT22;10824;51.632;4.950;2023-10-19T00:41:42;13.40;1.00
21331;DHT22;10824;51.632;4.950;2023-10-19T00:44:12;13.40;1.00
21331;DHT22;10824;51.632;4.950;2023-10-19T00:46:43;13.50;1.00
21331;DHT22;10824;51.632;4.950;2023-10-19T00:49:16;13.50;1.00
21331;DHT22;10824;51.632;4.950;2023-10-19T00:51:56;13.60;1.00
21331;DHT22;10824;51.632;4.950;2023-10-19T00:54:40;13.60;1.00
21331;DHT22;10824;51.632;4.950;2023-10-19T00:57:28;13.60;1.00
21331;DHT22;10824;51.632;4.950;2023-10-19T01:00:02;13.60;1.00
21331;DHT22;10824;51.632;4.950;2023-10-19T01:02:39;13.70;1.00
21331;DHT22;10824;51.632;4.950;2023-10-19T01:05:13;13.80;1.90
21331;DHT22;10824;51.632;4.950;2023-10-19T01:07:40;13.80;4.70
21331;DHT22;10824;51.632;4.950;2023-10-19T01:10:10;13.80;26.90
21331;DHT22;10824;51.632;4.950;2023-10-19T01:12:47;13.90;73.30
21331;DHT22;10824;51.632;4.950;2023-10-19T01:15:17;13.90;99.90
21331;DHT22;10824;51.632;4.950;2023-10-19T01:17:49;13.90;99.90
21331;DHT22;10824;51.632;4.950;2023-10-19T01:20:26;13.90;99.90
21331;DHT22;10824;51.632;4.950;2023-10-19T01:23:01;14.00;99.90
21331;DHT22;10824;51.632;4.950;2023-10-19T01:28:30;14.00;99.90
21331;DHT22;10824;51.632;4.950;2023-10-19T01:31:21;14.10;99.90
21331;DHT22;10824;51.632;4.950;2023-10-19T01:33:58;14.10;99.90
21331;DHT22;10824;51.632;4.950;2023-10-19T01:36:28;14.10;99.90
21331;DHT22;10824;51.632;4.950;2023-10-19T01:38:59;14.10;99.90
21331;DHT22;10824;51.632;4.950;2023-10-19T01:41:36;14.10;99.90
21331;DHT22;10824;51.632;4.950;2023-10-19T01:44:04;14.10;99.90
21331;DHT22;10824;51.632;4.950;2023-10-19T01:46:33;14.10;99.90
21331;DHT22;10824;51.632;4.950;2023-10-19T01:49:02;14.10;99.90
21331;DHT22;10824;51.632;4.950;2023-10-19T01:51:33;14.20;99.90
21331;DHT22;10824;51.632;4.950;2023-10-19T01:54:08;14.20;99.90
21331;DHT22;10824;51.632;4.950;2023-10-19T01:56:35;14.20;99.90
21331;DHT22;10824;51.632;4.950;2023-10-19T01:59:03;14.20;99.90
21331;DHT22;10824;51.632;4.950;2023-10-19T02:01:31;14.20;99.90
21331;DHT22;10824;51.632;4.950;2023-10-19T02:04:04;14.10;99.90
21331;DHT22;10824;51.632;4.950;2023-10-19T02:06:34;14.10;99.90
21331;DHT22;10824;51.632;4.950;2023-10-19T02:09:12;14.10;99.90
21331;DHT22;10824;51.632;4.950;2023-10-19T02:11:47;14.10;99.90
21331;DHT22;10824;51.632;4.950;2023-10-19T02:14:17;14.20;99.90
21331;DHT22;10824;51.632;4.950;2023-10-19T02:16:49;14.20;99.90
21331;DHT22;10824;51.632;4.950;2023-10-19T02:19:21;14.20;99.90
21331;DHT22;10824;51.632;4.950;2023-10-19T02:21:59;14.20;99.90
21331;DHT22;10824;51.632;4.950;2023-10-19T02:24:30;14.20;99.90
21331;DHT22;10824;51.632;4.950;2023-10-19T02:26:59;14.20;99.90
21331;DHT22;10824;51.632;4.950;2023-10-19T02:29:28;14.20;99.90
21331;DHT22;10824;51.632;4.950;2023-10-19T02:31:57;14.20;99.90
21331;DHT22;10824;51.632;4.950;2023-10-19T02:34:30;14.20;99.90
21331;DHT22;10824;51.632;4.950;2023-10-19T02:36:58;14.20;99.90
21331;DHT22;10824;51.632;4.950;2023-10-19T02:39:25;14.20;99.90
21331;DHT22;10824;51.632;4.950;2023-10-19T02:41:55;14.20;99.90
21331;DHT22;10824;51.632;4.950;2023-10-19T02:44:23;14.20;99.90
21331;DHT22;10824;51.632;4.950;2023-10-19T02:46:52;14.30;99.90
21331;DHT22;10824;51.632;4.950;2023-10-19T02:49:21;14.20;99.90
21331;DHT22;10824;51.632;4.950;2023-10-19T02:51:51;14.30;99.90
21331;DHT22;10824;51.632;4.950;2023-10-19T02:54:21;14.20;99.90
21331;DHT22;10824;51.632;4.950;2023-10-19T02:56:54;14.30;99.90
21331;DHT22;10824;51.632;4.950;2023-10-19T02:59:24;14.30;99.90
21331;DHT22;10824;51.632;4.950;2023-10-19T03:01:57;14.30;1.00
21331;DHT22;10824;51.632;4.950;2023-10-19T03:04:40;14.30;1.00
21331;DHT22;10824;51.632;4.950;2023-10-19T03:07:09;14.30;1.00
21331;DHT22;10824;51.632;4.950;2023-10-19T03:09:39;14.30;99.90
21331;DHT22;10824;51.632;4.950;2023-10-19T03:12:06;14.30;99.90
21331;DHT22;10824;51.632;4.950;2023-10-19T03:14:41;14.30;46.90
21331;DHT22;10824;51.632;4.950;2023-10-19T03:17:08;14.30;1.00
21331;DHT22;10824;51.632;4.950;2023-10-19T03:19:36;14.30;1.00
21331;DHT22;10824;51.632;4.950;2023-10-19T03:22:03;14.30;99.90
21331;DHT22;10824;51.632;4.950;2023-10-19T03:24:33;14.30;99.90
21331;DHT22;10824;51.632;4.950;2023-10-19T03:27:14;14.30;1.00
21331;DHT22;10824;51.632;4.950;2023-10-19T03:29:51;14.30;1.00
21331;DHT22;10824;51.632;4.950;2023-10-19T03:32:23;14.30;99.90
21331;DHT22;10824;51.632;4.950;2023-10-19T03:34:57;14.20;1.00
21331;DHT22;10824;51.632;4.950;2023-10-19T03:37:27;14.20;1.00
21331;DHT22;10824;51.632;4.950;2023-10-19T03:39:59;14.20;99.90
21331;DHT22;10824;51.632;4.950;2023-10-19T03:42:26;14.10;99.90
21331;DHT22;10824;51.632;4.950;2023-10-19T03:44:57;14.10;99.90
21331;DHT22;10824;51.632;4.950;2023-10-19T03:47:24;14.00;99.90
21331;DHT22;10824;51.632;4.950;2023-10-19T03:50:04;14.00;99.90
21331;DHT22;10824;51.632;4.950;2023-10-19T03:52:35;13.90;99.90
21331;DHT22;10824;51.632;4.950;2023-10-19T03:55:06;13.90;99.90
21331;DHT22;10824;51.632;4.950;2023-10-19T03:57:43;13.90;99.90
21331;DHT22;10824;51.632;4.950;2023-10-19T04:00:14;13.90;1.00
21331;DHT22;10824;51.632;4.950;2023-10-19T04:02:46;13.80;1.00
21331;DHT22;10824;51.632;4.950;2023-10-19T04:05:14;13.80;1.00
21331;DHT22;10824;51.632;4.950;2023-10-19T04:07:49;13.90;1.00
21331;DHT22;10824;51.632;4.950;2023-10-19T04:10:24;13.80;1.00
21331;DHT22;10824;51.632;4.950;2023-10-19T04:13:12;13.80;1.00
21331;DHT22;10824;51.632;4.950;2023-10-19T04:15:40;13.70;1.00
21331;DHT22;10824;51.632;4.950;2023-10-19T04:18:09;13.80;83.20
21331;DHT22;10824;51.632;4.950;2023-10-19T04:20:38;13.70;12.90
21331;DHT22;10824;51.632;4.950;2023-10-19T04:23:17;13.70;1.00
21331;DHT22;10824;51.632;4.950;2023-10-19T04:25:44;13.70;99.90
21331;DHT22;10824;51.632;4.950;2023-10-19T04:28:14;13.70;99.90
21331;DHT22;10824;51.632;4.950;2023-10-19T04:30:41;13.70;99.90
21331;DHT22;10824;51.632;4.950;2023-10-19T04:33:08;13.70;99.90
21331;DHT22;10824;51.632;4.950;2023-10-19T04:35:38;13.60;15.90
21331;DHT22;10824;51.632;4.950;2023-10-19T04:38:08;13.70;99.90
21331;DHT22;10824;51.632;4.950;2023-10-19T04:40:35;13.70;24.20
21331;DHT22;10824;51.632;4.950;2023-10-19T04:43:03;13.60;1.00
21331;DHT22;10824;51.632;4.950;2023-10-19T04:45:33;13.60;1.00
21331;DHT22;10824;51.632;4.950;2023-10-19T04:48:00;13.60;1.00
21331;DHT22;10824;51.632;4.950;2023-10-19T04:50:31;13.60;18.00
21331;DHT22;10824;51.632;4.950;2023-10-19T04:52:59;13.60;99.90
21331;DHT22;10824;51.632;4.950;2023-10-19T04:55:26;13.60;99.90
21331;DHT22;10824;51.632;4.950;2023-10-19T04:57:54;13.60;99.90
21331;DHT22;10824;51.632;4.950;2023-10-19T05:00:21;13.60;99.90
21331;DHT22;10824;51.632;4.950;2023-10-19T05:02:50;13.70;1.00
21331;DHT22;10824;51.632;4.950;2023-10-19T05:05:19;13.70;1.00
21331;DHT22;10824;51.632;4.950;2023-10-19T05:07:46;13.70;99.90
21331;DHT22;10824;51.632;4.950;2023-10-19T05:10:14;13.70;99.90
21331;DHT22;10824;51.632;4.950;2023-10-19T05:12:41;13.70;1.00
21331;DHT22;10824;51.632;4.950;2023-10-19T05:15:09;13.70;1.00
21331;DHT22;10824;51.632;4.950;2023-10-19T05:17:36;13.70;1.00
21331;DHT22;10824;51.632;4.950;2023-10-19T05:20:03;13.70;1.00
21331;DHT22;10824;51.632;4.950;2023-10-19T05:22:32;13.80;1.00
21331;DHT22;10824;51.632;4.950;2023-10-19T05:24:59;13.80;1.00
21331;DHT22;10824;51.632;4.950;2023-10-19T05:27:28;13.80;99.90
21331;DHT22;10824;51.632;4.950;2023-10-19T05:29:55;13.80;99.90
21331;DHT22;10824;51.632;4.950;2023-10-19T05:32:23;13.80;99.90
21331;DHT22;10824;51.632;4.950;2023-10-19T05:34:51;13.90;99.90
21331;DHT22;10824;51.632;4.950;2023-10-19T05:37:18;13.90;1.00
21331;DHT22;10824;51.632;4.950;2023-10-19T05:39:46;14.00;1.00
21331;DHT22;10824;51.632;4.950;2023-10-19T05:42:13;14.00;99.90
21331;DHT22;10824;51.632;4.950;2023-10-19T05:44:40;13.90;99.90
21331;DHT22;10824;51.632;4.950;2023-10-19T05:47:07;14.00;99.90
21331;DHT22;10824;51.632;4.950;2023-10-19T05:49:34;14.00;82.30
21331;DHT22;10824;51.632;4.950;2023-10-19T05:52:04;14.00;1.00
21331;DHT22;10824;51.632;4.950;2023-10-19T05:54:31;14.00;1.00
21331;DHT22;10824;51.632;4.950;2023-10-19T05:56:59;14.00;80.80
21331;DHT22;10824;51.632;4.950;2023-10-19T05:59:26;14.00;1.00
21331;DHT22;10824;51.632;4.950;2023-10-19T06:01:59;14.00;53.60
21331;DHT22;10824;51.632;4.950;2023-10-19T06:04:26;14.00;19.40
21331;DHT22;10824;51.632;4.950;2023-10-19T06:06:53;14.00;99.90
21331;DHT22;10824;51.632;4.950;2023-10-19T06:09:21;14.00;99.90
21331;DHT22;10824;51.632;4.950;2023-10-19T06:11:56;14.00;99.90
21331;DHT22;10824;51.632;4.950;2023-10-19T06:14:23;13.90;99.90
21331;DHT22;10824;51.632;4.950;2023-10-19T06:16:51;14.00;99.90
21331;DHT22;10824;51.632;4.950;2023-10-19T06:19:20;13.90;99.90
21331;DHT22;10824;51.632;4.950;2023-10-19T06:21:47;14.00;1.00
21331;DHT22;10824;51.632;4.950;2023-10-19T06:24:14;14.00;99.90
21331;DHT22;10824;51.632;4.950;2023-10-19T06:26:43;14.00;1.00
21331;DHT22;10824;51.632;4.950;2023-10-19T06:29:10;14.00;99.90
21331;DHT22;10824;51.632;4.950;2023-10-19T06:31:37;14.00;1.00
21331;DHT22;10824;51.632;4.950;2023-10-19T06:34:05;14.00;1.00
21331;DHT22;10824;51.632;4.950;2023-10-19T06:36:35;14.00;1.00
21331;DHT22;10824;51.632;4.950;2023-10-19T06:39:02;14.00;1.00
21331;DHT22;10824;51.632;4.950;2023-10-19T06:41:33;14.00;1.00
21331;DHT22;10824;51.632;4.950;2023-10-19T06:44:00;14.10;1.00
21331;DHT22;10824;51.632;4.950;2023-10-19T06:46:28;14.10;1.00
21331;DHT22;10824;51.632;4.950;2023-10-19T06:48:55;14.10;1.00
21331;DHT22;10824;51.632;4.950;2023-10-19T06:51:26;14.00;1.00
21331;DHT22;10824;51.632;4.950;2023-10-19T06:53:54;14.10;64.80
21331;DHT22;10824;51.632;4.950;2023-10-19T06:56:21;14.10;99.90
21331;DHT22;10824;51.632;4.950;2023-10-19T06:58:48;14.10;99.90
21331;DHT22;10824;51.632;4.950;2023-10-19T07:01:18;14.10;99.90
21331;DHT22;10824;51.632;4.950;2023-10-19T07:03:50;14.10;99.90
21331;DHT22;10824;51.632;4.950;2023-10-19T07:06:20;14.10;99.90
21331;DHT22;10824;51.632;4.950;2023-10-19T07:08:47;14.10;99.90
21331;DHT22;10824;51.632;4.950;2023-10-19T07:11:14;14.10;99.90
21331;DHT22;10824;51.632;4.950;2023-10-19T07:13:42;14.20;99.90
21331;DHT22;10824;51.632;4.950;2023-10-19T07:16:13;14.20;46.20
21331;DHT22;10824;51.632;4.950;2023-10-19T07:18:41;14.20;50.80
21331;DHT22;10824;51.632;4.950;2023-10-19T07:21:09;14.20;52.50
21331;DHT22;10824;51.632;4.950;2023-10-19T07:23:37;14.30;73.60
21331;DHT22;10824;51.632;4.950;2023-10-19T07:26:07;14.30;1.00
21331;DHT22;10824;51.632;4.950;2023-10-19T07:28:35;14.30;1.00
21331;DHT22;10824;51.632;4.950;2023-10-19T07:31:05;14.30;1.00
21331;DHT22;10824;51.632;4.950;2023-10-19T07:33:39;14.30;1.00
21331;DHT22;10824;51.632;4.950;2023-10-19T07:36:13;14.30;1.00
21331;DHT22;10824;51.632;4.950;2023-10-19T07:38:46;14.40;1.00
21331;DHT22;10824;51.632;4.950;2023-10-19T07:41:14;14.40;1.00
21331;DHT22;10824;51.632;4.950;2023-10-19T07:43:41;14.40;1.00
21331;DHT22;10824;51.632;4.950;2023-10-19T07:46:10;14.50;1.00
21331;DHT22;10824;51.632;4.950;2023-10-19T07:48:39;14.50;99.90
21331;DHT22;10824;51.632;4.950;2023-10-19T07:51:08;14.50;1.00
21331;DHT22;10824;51.632;4.950;2023-10-19T07:53:38;14.50;99.90
21331;DHT22;10824;51.632;4.950;2023-10-19T07:56:05;14.50;1.00
21331;DHT22;10824;51.632;4.950;2023-10-19T07:58:32;14.50;1.00
21331;DHT22;10824;51.632;4.950;2023-10-19T08:01:00;14.50;1.00
21331;DHT22;10824;51.632;4.950;2023-10-19T08:03:28;14.60;1.00
21331;DHT22;10824;51.632;4.950;2023-10-19T08:05:55;14.70;1.00
21331;DHT22;10824;51.632;4.950;2023-10-19T08:08:22;14.70;99.90
21331;DHT22;10824;51.632;4.950;2023-10-19T08:10:51;14.80;99.90
21331;DHT22;10824;51.632;4.950;2023-10-19T08:13:18;14.80;99.90
21331;DHT22;10824;51.632;4.950;2023-10-19T08:15:45;14.80;99.90
21331;DHT22;10824;51.632;4.950;2023-10-19T08:18:12;14.80;99.90
21331;DHT22;10824;51.632;4.950;2023-10-19T08:20:41;14.80;99.90
21331;DHT22;10824;51.632;4.950;2023-10-19T08:23:12;14.90;99.90
21331;DHT22;10824;51.632;4.950;2023-10-19T08:25:40;14.90;99.90
21331;DHT22;10824;51.632;4.950;2023-10-19T08:28:22;15.00;99.90
21331;DHT22;10824;51.632;4.950;2023-10-19T08:30:50;15.00;1.00
21331;DHT22;10824;51.632;4.950;2023-10-19T08:33:30;15.00;99.90
21331;DHT22;10824;51.632;4.950;2023-10-19T08:36:01;15.00;99.90
21331;DHT22;10824;51.632;4.950;2023-10-19T08:38:29;14.90;99.90
21331;DHT22;10824;51.632;4.950;2023-10-19T08:40:56;15.10;99.90
21331;DHT22;10824;51.632;4.950;2023-10-19T08:43:23;15.30;2.60
21331;DHT22;10824;51.632;4.950;2023-10-19T08:45:51;15.40;1.00
21331;DHT22;10824;51.632;4.950;2023-10-19T08:48:20;15.50;99.90
21331;DHT22;10824;51.632;4.950;2023-10-19T08:50:47;15.70;99.90
21331;DHT22;10824;51.632;4.950;2023-10-19T08:53:18;15.80;99.90
21331;DHT22;10824;51.632;4.950;2023-10-19T08:55:46;15.80;1.00
21331;DHT22;10824;51.632;4.950;2023-10-19T08:58:17;16.00;99.90
21331;DHT22;10824;51.632;4.950;2023-10-19T09:00:48;16.10;99.90
21331;DHT22;10824;51.632;4.950;2023-10-19T09:03:19;16.20;99.90
21331;DHT22;10824;51.632;4.950;2023-10-19T09:05:47;16.40;99.90
21331;DHT22;10824;51.632;4.950;2023-10-19T09:08:16;16.20;1.00
21331;DHT22;10824;51.632;4.950;2023-10-19T09:10:46;16.20;10.50
21331;DHT22;10824;51.632;4.950;2023-10-19T09:13:14;16.20;99.90
21331;DHT22;10824;51.632;4.950;2023-10-19T09:15:50;16.10;99.90
21331;DHT22;10824;51.632;4.950;2023-10-19T09:18:24;16.20;99.90
21331;DHT22;10824;51.632;4.950;2023-10-19T09:20:56;16.30;1.00
21331;DHT22;10824;51.632;4.950;2023-10-19T09:23:30;16.40;37.70
21331;DHT22;10824;51.632;4.950;2023-10-19T09:26:01;16.50;1.00
21331;DHT22;10824;51.632;4.950;2023-10-19T09:28:36;16.50;1.00
21331;DHT22;10824;51.632;4.950;2023-10-19T09:31:05;16.50;1.00
21331;DHT22;10824;51.632;4.950;2023-10-19T09:33:33;16.50;1.00
21331;DHT22;10824;51.632;4.950;2023-10-19T09:36:02;16.50;1.00
21331;DHT22;10824;51.632;4.950;2023-10-19T09:38:31;16.50;1.00
21331;DHT22;10824;51.632;4.950;2023-10-19T09:41:01;16.50;1.00
21331;DHT22;10824;51.632;4.950;2023-10-19T09:43:37;16.60;1.00
21331;DHT22;10824;51.632;4.950;2023-10-19T09:46:09;16.70;1.00
21331;DHT22;10824;51.632;4.950;2023-10-19T09:48:42;16.90;99.90
21331;DHT22;10824;51.632;4.950;2023-10-19T09:51:10;17.00;99.90
21331;DHT22;10824;51.632;4.950;2023-10-19T09:53:40;17.10;99.90
21331;DHT22;10824;51.632;4.950;2023-10-19T09:56:15;17.20;48.50
21331;DHT22;10824;51.632;4.950;2023-10-19T09:58:48;17.10;99.90
21331;DHT22;10824;51.632;4.950;2023-10-19T10:01:16;17.10;73.00
21331;DHT22;10824;51.632;4.950;2023-10-19T10:03:51;17.10;1.00
21331;DHT22;10824;51.632;4.950;2023-10-19T10:09:18;17.30;99.90
21331;DHT22;10824;51.632;4.950;2023-10-19T10:11:52;17.30;99.90
21331;DHT22;10824;51.632;4.950;2023-10-19T10:14:22;17.30;1.00
21331;DHT22;10824;51.632;4.950;2023-10-19T10:17:01;17.30;99.90
21331;DHT22;10824;51.632;4.950;2023-10-19T10:19:28;17.30;1.00
21331;DHT22;10824;51.632;4.950;2023-10-19T10:22:08;17.50;1.00
21331;DHT22;10824;51.632;4.950;2023-10-19T10:24:43;17.60;1.00
21331;DHT22;10824;51.632;4.950;2023-10-19T10:27:10;17.70;1.00
21331;DHT22;10824;51.632;4.950;2023-10-19T10:30:00;17.80;1.00
21331;DHT22;10824;51.632;4.950;2023-10-19T10:33:02;17.80;1.00
21331;DHT22;10824;51.632;4.950;2023-10-19T10:38:10;17.60;99.90
21331;DHT22;10824;51.632;4.950;2023-10-19T10:40:46;17.50;99.90
21331;DHT22;10824;51.632;4.950;2023-10-19T10:43:19;17.50;1.00
21331;DHT22;10824;51.632;4.950;2023-10-19T10:45:46;17.50;1.00
21331;DHT22;10824;51.632;4.950;2023-10-19T10:48:14;17.40;1.00
21331;DHT22;10824;51.632;4.950;2023-10-19T10:50:42;17.40;1.00
21331;DHT22;10824;51.632;4.950;2023-10-19T10:53:11;17.30;1.00
21331;DHT22;10824;51.632;4.950;2023-10-19T10:55:38;17.30;1.00
21331;DHT22;10824;51.632;4.950;2023-10-19T10:58:09;17.20;1.00
21331;DHT22;10824;51.632;4.950;2023-10-19T11:00:43;17.20;1.00
21331;DHT22;10824;51.632;4.950;2023-10-19T11:03:11;17.20;1.00
21331;DHT22;10824;51.632;4.950;2023-10-19T11:05:38;17.20;1.00
21331;DHT22;10824;51.632;4.950;2023-10-19T11:08:15;17.30;1.00
21331;DHT22;10824;51.632;4.950;2023-10-19T11:10:49;17.30;1.00
21331;DHT22;10824;51.632;4.950;2023-10-19T11:13:23;17.30;99.90
21331;DHT22;10824;51.632;4.950;2023-10-19T11:15:52;17.30;1.00
21331;DHT22;10824;51.632;4.950;2023-10-19T11:18:42;17.40;1.00
21331;DHT22;10824;51.632;4.950;2023-10-19T11:21:16;17.40;1.00
21331;DHT22;10824;51.632;4.950;2023-10-19T11:23:49;17.40;1.00
21331;DHT22;10824;51.632;4.950;2023-10-19T11:26:19;17.30;1.00
21331;DHT22;10824;51.632;4.950;2023-10-19T11:28:47;17.30;1.00
21331;DHT22;10824;51.632;4.950;2023-10-19T11:31:23;17.30;1.00
21331;DHT22;10824;51.632;4.950;2023-10-19T11:33:53;17.30;1.00
21331;DHT22;10824;51.632;4.950;2023-10-19T11:36:22;17.40;1.00
21331;DHT22;10824;51.632;4.950;2023-10-19T11:38:51;17.40;1.00
21331;DHT22;10824;51.632;4.950;2023-10-19T11:41:19;17.40;1.00
21331;DHT22;10824;51.632;4.950;2023-10-19T11:43:47;17.30;1.00
21331;DHT22;10824;51.632;4.950;2023-10-19T11:46:16;17.30;1.00
21331;DHT22;10824;51.632;4.950;2023-10-19T11:48:45;17.30;1.00
21331;DHT22;10824;51.632;4.950;2023-10-19T11:51:13;17.20;1.00
21331;DHT22;10824;51.632;4.950;2023-10-19T11:53:42;17.20;1.00
21331;DHT22;10824;51.632;4.950;2023-10-19T11:56:13;17.10;1.00
21331;DHT22;10824;51.632;4.950;2023-10-19T11:58:40;17.20;1.00
21331;DHT22;10824;51.632;4.950;2023-10-19T12:01:10;17.20;1.00
21331;DHT22;10824;51.632;4.950;2023-10-19T12:03:40;17.20;1.00
21331;DHT22;10824;51.632;4.950;2023-10-19T12:06:10;17.20;1.00
21331;DHT22;10824;51.632;4.950;2023-10-19T12:08:38;17.10;1.00
21331;DHT22;10824;51.632;4.950;2023-10-19T12:11:06;17.20;1.00
21331;DHT22;10824;51.632;4.950;2023-10-19T12:13:44;17.20;1.00
21331;DHT22;10824;51.632;4.950;2023-10-19T12:16:11;17.20;1.00
21331;DHT22;10824;51.632;4.950;2023-10-19T12:18:47;17.30;99.90
21331;DHT22;10824;51.632;4.950;2023-10-19T12:21:15;17.30;1.00
21331;DHT22;10824;51.632;4.950;2023-10-19T12:23:45;17.30;99.90
21331;DHT22;10824;51.632;4.950;2023-10-19T12:26:18;17.30;1.00
21331;DHT22;10824;51.632;4.950;2023-10-19T12:28:46;17.40;1.00
21331;DHT22;10824;51.632;4.950;2023-10-19T12:31:16;17.40;99.90
21331;DHT22;10824;51.632;4.950;2023-10-19T12:33:46;17.30;1.00
21331;DHT22;10824;51.632;4.950;2023-10-19T12:36:13;17.30;99.90
21331;DHT22;10824;51.632;4.950;2023-10-19T12:38:55;17.40;1.00
21331;DHT22;10824;51.632;4.950;2023-10-19T12:41:24;17.30;1.00
21331;DHT22;10824;51.632;4.950;2023-10-19T12:43:51;17.30;1.00
21331;DHT22;10824;51.632;4.950;2023-10-19T12:46:21;17.20;99.90
21331;DHT22;10824;51.632;4.950;2023-10-19T12:48:51;17.10;99.90
21331;DHT22;10824;51.632;4.950;2023-10-19T12:51:20;17.10;1.00
21331;DHT22;10824;51.632;4.950;2023-10-19T12:53:51;17.00;1.00
21331;DHT22;10824;51.632;4.950;2023-10-19T12:56:20;16.90;99.90
21331;DHT22;10824;51.632;4.950;2023-10-19T12:58:47;16.90;99.90
21331;DHT22;10824;51.632;4.950;2023-10-19T13:01:15;16.90;99.90
21331;DHT22;10824;51.632;4.950;2023-10-19T13:03:47;16.90;1.00
21331;DHT22;10824;51.632;4.950;2023-10-19T13:06:17;16.80;1.00
21331;DHT22;10824;51.632;4.950;2023-10-19T13:08:44;16.90;16.00
21331;DHT22;10824;51.632;4.950;2023-10-19T13:11:11;16.90;21.30
21331;DHT22;10824;51.632;4.950;2023-10-19T13:13:45;17.00;5.00
21331;DHT22;10824;51.632;4.950;2023-10-19T13:16:15;17.00;54.40
21331;DHT22;10824;51.632;4.950;2023-10-19T13:18:43;17.00;45.20
21331;DHT22;10824;51.632;4.950;2023-10-19T13:21:11;17.00;22.00
21331;DHT22;10824;51.632;4.950;2023-10-19T13:23:38;16.90;55.40
21331;DHT22;10824;51.632;4.950;2023-10-19T13:26:06;16.80;18.70
21331;DHT22;10824;51.632;4.950;2023-10-19T13:28:44;16.80;62.60
21331;DHT22;10824;51.632;4.950;2023-10-19T13:31:13;16.70;99.90
21331;DHT22;10824;51.632;4.950;2023-10-19T13:33:46;16.70;99.90
21331;DHT22;10824;51.632;4.950;2023-10-19T13:36:16;16.70;99.90
21331;DHT22;10824;51.632;4.950;2023-10-19T13:38:43;16.60;99.90
21331;DHT22;10824;51.632;4.950;2023-10-19T13:41:11;16.60;99.90
21331;DHT22;10824;51.632;4.950;2023-10-19T13:43:41;16.60;1.00
21331;DHT22;10824;51.632;4.950;2023-10-19T13:46:09;16.50;99.90
21331;DHT22;10824;51.632;4.950;2023-10-19T13:48:37;16.50;99.90
21331;DHT22;10824;51.632;4.950;2023-10-19T13:51:06;16.50;99.90
21331;DHT22;10824;51.632;4.950;2023-10-19T13:53:41;16.40;1.00
21331;DHT22;10824;51.632;4.950;2023-10-19T13:56:10;16.40;99.90
21331;DHT22;10824;51.632;4.950;2023-10-19T13:58:38;16.40;99.90
21331;DHT22;10824;51.632;4.950;2023-10-19T14:01:09;16.40;1.00
21331;DHT22;10824;51.632;4.950;2023-10-19T14:03:37;16.40;1.00
21331;DHT22;10824;51.632;4.950;2023-10-19T14:06:05;16.40;1.00
21331;DHT22;10824;51.632;4.950;2023-10-19T14:08:39;16.40;1.00
21331;DHT22;10824;51.632;4.950;2023-10-19T14:11:08;16.40;99.90
21331;DHT22;10824;51.632;4.950;2023-10-19T14:13:35;16.40;99.90
21331;DHT22;10824;51.632;4.950;2023-10-19T14:16:09;16.40;1.00
21331;DHT22;10824;51.632;4.950;2023-10-19T14:18:36;16.40;1.00
21331;DHT22;10824;51.632;4.950;2023-10-19T14:21:30;16.40;1.00
21331;DHT22;10824;51.632;4.950;2023-10-19T14:23:58;16.40;99.90
21331;DHT22;10824;51.632;4.950;2023-10-19T14:26:25;16.40;99.90
21331;DHT22;10824;51.632;4.950;2023-10-19T14:28:52;16.40;1.00
21331;DHT22;10824;51.632;4.950;2023-10-19T14:31:20;16.50;99.90
21331;DHT22;10824;51.632;4.950;2023-10-19T14:33:48;16.50;1.00
21331;DHT22;10824;51.632;4.950;2023-10-19T14:36:15;16.60;99.90
21331;DHT22;10824;51.632;4.950;2023-10-19T14:38:42;16.80;99.90
21331;DHT22;10824;51.632;4.950;2023-10-19T14:41:12;17.00;1.00
21331;DHT22;10824;51.632;4.950;2023-10-19T14:43:39;17.10;1.00
21331;DHT22;10824;51.632;4.950;2023-10-19T14:46:06;17.30;99.90
21331;DHT22;10824;51.632;4.950;2023-10-19T14:48:34;17.40;1.00
21331;DHT22;10824;51.632;4.950;2023-10-19T14:51:02;17.30;4.80
21331;DHT22;10824;51.632;4.950;2023-10-19T14:53:29;17.30;1.00
21331;DHT22;10824;51.632;4.950;2023-10-19T14:55:57;17.20;1.00
21331;DHT22;10824;51.632;4.950;2023-10-19T14:58:24;17.10;1.00
21331;DHT22;10824;51.632;4.950;2023-10-19T15:00:56;17.00;99.90
21331;DHT22;10824;51.632;4.950;2023-10-19T15:03:23;16.90;1.00
21331;DHT22;10824;51.632;4.950;2023-10-19T15:05:55;16.90;99.90
21331;DHT22;10824;51.632;4.950;2023-10-19T15:08:26;16.90;99.90
21331;DHT22;10824;51.632;4.950;2023-10-19T15:10:56;16.90;1.00
21331;DHT22;10824;51.632;4.950;2023-10-19T15:13:24;16.90;1.00
21331;DHT22;10824;51.632;4.950;2023-10-19T15:15:51;16.90;1.00
21331;DHT22;10824;51.632;4.950;2023-10-19T15:18:18;16.90;1.00
21331;DHT22;10824;51.632;4.950;2023-10-19T15:20:45;16.90;1.00
21331;DHT22;10824;51.632;4.950;2023-10-19T15:23:13;16.90;1.00
21331;DHT22;10824;51.632;4.950;2023-10-19T15:25:40;17.00;1.00
21331;DHT22;10824;51.632;4.950;2023-10-19T15:28:07;17.00;1.00
21331;DHT22;10824;51.632;4.950;2023-10-19T15:30:38;17.00;99.90
21331;DHT22;10824;51.632;4.950;2023-10-19T15:33:05;17.00;99.90
21331;DHT22;10824;51.632;4.950;2023-10-19T15:35:32;16.90;99.90
21331;DHT22;10824;51.632;4.950;2023-10-19T15:38:07;16.90;97.60
21331;DHT22;10824;51.632;4.950;2023-10-19T15:40:34;16.90;99.90
21331;DHT22;10824;51.632;4.950;2023-10-19T15:43:01;16.80;99.90
21331;DHT22;10824;51.632;4.950;2023-10-19T15:45:29;16.80;99.90
21331;DHT22;10824;51.632;4.950;2023-10-19T15:47:59;16.80;1.00
21331;DHT22;10824;51.632;4.950;2023-10-19T15:50:28;16.70;1.00
21331;DHT22;10824;51.632;4.950;2023-10-19T15:52:55;16.70;1.00
21331;DHT22;10824;51.632;4.950;2023-10-19T15:55:27;16.70;1.00
21331;DHT22;10824;51.632;4.950;2023-10-19T15:57:54;16.70;99.90
21331;DHT22;10824;51.632;4.950;2023-10-19T16:00:22;16.70;1.00
21331;DHT22;10824;51.632;4.950;2023-10-19T16:02:49;16.70;1.00
21331;DHT22;10824;51.632;4.950;2023-10-19T16:05:18;16.70;99.90